Time;durP1;ratioP1;P1;durP2;ratioP2;P2;SDS_P1;SDS_P2;PMS_P1;PMS_P2;Temp;Humidity;BMP_temperature;BMP_pressure;BME280_temperature;BME280_humidity;BME280_pressure;Samples;Min_cycle;Max_cycle;Signal;HPM_P1;HPM_P2
2022/12/09 00:02:07;;;;;;;;;;;;;;;5.43;74.46;99505.56;5060373;28;4316;-85
2022/12/09 00:04:33;;;;;;;;;;;;;;;5.53;74.70;99502.44;5057796;28;4292;-83
2022/12/09 00:07:00;;;;;;;;;;;;;;;5.49;74.72;99515.41;5054639;28;3479;-83
2022/12/09 00:09:26;;;;;;;;;;;;;;;5.55;74.27;99513.72;5059468;28;4338;-84
2022/12/09 00:11:52;;;;;;;;;;;;;;;5.49;74.64;99514.59;5074856;28;3869;-84
2022/12/09 00:14:19;;;;;;;;;;;;;;;5.51;74.50;99518.69;5059574;28;4226;-85
2022/12/09 00:16:45;;;;;;;;;;;;;;;5.45;74.53;99512.34;5061463;28;3997;-84
2022/12/09 00:19:11;;;;;;;;;;;;;;;5.44;74.59;99517.88;5060556;28;4222;-84
2022/12/09 00:21:38;;;;;;;;;;;;;;;5.55;74.25;99517.22;5054058;28;4222;-83
2022/12/09 00:24:04;;;;;;;;;;;;;;;5.38;74.85;99530.25;5072039;28;4299;-82
2022/12/09 00:26:31;;;;;;;;;;;;;;;5.49;74.43;99522.59;5074837;28;4367;-83
2022/12/09 00:28:57;;;;;;;;;;;;;;;5.34;75.25;99521.00;5073853;28;4439;-84
2022/12/09 00:31:24;;;;;;;;;;;;;;;5.34;74.99;99520.19;5070897;28;4158;-85
2022/12/09 00:33:50;;;;;;;;;;;;;;;5.60;74.09;99519.28;5053539;28;4426;-85
2022/12/09 00:36:16;;;;;;;;;;;;;;;5.39;75.37;99518.53;5057048;28;4320;-85
2022/12/09 00:38:43;;;;;;;;;;;;;;;5.45;74.63;99519.53;5067239;28;4311;-84
2022/12/09 00:41:09;;;;;;;;;;;;;;;5.46;74.57;99523.84;5056661;28;4458;-85
2022/12/09 00:43:35;;;;;;;;;;;;;;;5.32;75.24;99527.56;5068035;28;4306;-85
2022/12/09 00:46:02;;;;;;;;;;;;;;;5.43;74.89;99525.06;5064220;28;3938;-84
2022/12/09 00:48:28;;;;;;;;;;;;;;;5.36;75.06;99528.81;5064719;28;4330;-84
2022/12/09 00:50:57;;;;;;;;;;;;;;;5.34;74.97;99529.00;5072571;28;4158;-85
2022/12/09 00:53:23;;;;;;;;;;;;;;;5.32;75.05;99525.72;5072313;28;4423;-84
2022/12/09 00:55:50;;;;;;;;;;;;;;;5.37;75.33;99520.56;5062494;28;4248;-84
2022/12/09 00:58:16;;;;;;;;;;;;;;;5.40;74.98;99522.81;5075609;28;3371;-85
2022/12/09 01:00:42;;;;;;;;;;;;;;;5.33;75.36;99526.56;5063396;28;3468;-84
2022/12/09 01:03:09;;;;;;;;;;;;;;;5.40;75.02;99522.81;5055166;28;4227;-83
2022/12/09 01:05:35;;;;;;;;;;;;;;;5.42;74.85;99518.09;5074622;28;4040;-85
2022/12/09 01:08:02;;;;;;;;;;;;;;;5.33;74.79;99518.56;5056421;28;4107;-84
2022/12/09 01:10:28;;;;;;;;;;;;;;;5.29;75.21;99520.81;5078624;28;4201;-85
2022/12/09 01:12:54;;;;;;;;;;;;;;;5.28;75.53;99529.03;5074861;28;3277;-86
2022/12/09 01:15:21;;;;;;;;;;;;;;;5.24;75.04;99521.44;5086430;28;4404;-84
2022/12/09 01:17:47;;;;;;;;;;;;;;;5.22;75.50;99533.38;5075813;28;4825;-84
2022/12/09 01:20:13;;;;;;;;;;;;;;;5.45;74.62;99530.22;5071494;28;3367;-84
2022/12/09 01:22:40;;;;;;;;;;;;;;;5.29;75.23;99534.16;5067788;28;4386;-85
2022/12/09 01:25:06;;;;;;;;;;;;;;;5.24;75.74;99536.66;5075361;28;4222;-85
2022/12/09 01:27:32;;;;;;;;;;;;;;;5.22;75.70;99541.38;5057923;28;4462;-85
2022/12/09 01:29:59;;;;;;;;;;;;;;;5.23;75.34;99541.19;5072529;28;4501;-85
2022/12/09 01:32:25;;;;;;;;;;;;;;;5.21;75.97;99537.88;5058260;28;4231;-84
2022/12/09 01:34:51;;;;;;;;;;;;;;;5.29;75.56;99544.84;5043050;28;4394;-86
2022/12/09 01:37:18;;;;;;;;;;;;;;;5.22;75.41;99541.38;5053589;28;4347;-85
2022/12/09 01:39:44;;;;;;;;;;;;;;;5.38;74.92;99538.25;5068384;28;4406;-83
2022/12/09 01:42:10;;;;;;;;;;;;;;;5.18;75.79;99545.50;5053312;28;4036;-84
2022/12/09 01:44:37;;;;;;;;;;;;;;;5.20;76.03;99541.56;5050660;28;4482;-83
2022/12/09 01:47:03;;;;;;;;;;;;;;;5.22;75.37;99544.84;5059844;28;3425;-84
2022/12/09 01:49:29;;;;;;;;;;;;;;;5.34;75.80;99546.88;5069562;28;4449;-85
2022/12/09 01:51:56;;;;;;;;;;;;;;;5.29;75.35;99544.84;5049932;28;4381;-84
2022/12/09 01:54:23;;;;;;;;;;;;;;;5.28;75.03;99548.53;5049614;28;3882;-85
2022/12/09 01:56:49;;;;;;;;;;;;;;;5.24;75.44;99548.16;5053117;28;4058;-84
2022/12/09 01:59:16;;;;;;;;;;;;;;;5.43;75.02;99551.78;5072718;28;3456;-84
2022/12/09 02:01:42;;;;;;;;;;;;;;;5.27;75.49;99554.91;5054584;28;4387;-85
2022/12/09 02:04:08;;;;;;;;;;;;;;;5.40;74.87;99557.53;5067379;28;3678;-85
2022/12/09 02:06:35;;;;;;;;;;;;;;;5.38;74.90;99553.44;5051840;28;4496;-85
2022/12/09 02:09:01;;;;;;;;;;;;;;;5.35;75.03;99561.88;5047954;28;4317;-83
2022/12/09 02:11:28;;;;;;;;;;;;;;;5.30;75.00;99556.34;5073035;28;3447;-84
2022/12/09 02:13:54;;;;;;;;;;;;;;;5.28;75.52;99556.56;5037615;28;4233;-84
2022/12/09 02:16:20;;;;;;;;;;;;;;;5.37;75.07;99557.16;5055381;28;4378;-84
2022/12/09 02:18:47;;;;;;;;;;;;;;;5.52;74.46;99555.03;5050600;28;3371;-85
2022/12/09 02:21:13;;;;;;;;;;;;;;;5.29;75.69;99566.19;5051202;28;3339;-83
2022/12/09 02:23:39;;;;;;;;;;;;;;;5.30;75.09;99554.50;5050772;28;4199;-85
2022/12/09 02:26:06;;;;;;;;;;;;;;;5.40;74.62;99557.53;5068423;28;4215;-86
2022/12/09 02:28:32;;;;;;;;;;;;;;;5.27;75.33;99562.13;5067969;28;4360;-85
2022/12/09 02:30:58;;;;;;;;;;;;;;;5.38;74.90;99564.97;5071554;28;4415;-85
2022/12/09 02:33:25;;;;;;;;;;;;;;;5.49;74.53;99557.31;5076061;28;4357;-85
2022/12/09 02:35:51;;;;;;;;;;;;;;;5.30;75.44;99567.84;5068405;28;4353;-84
2022/12/09 02:38:17;;;;;;;;;;;;;;;5.29;75.25;99571.53;5081883;28;4295;-84
2022/12/09 02:40:44;;;;;;;;;;;;;;;5.36;75.61;99568.88;5067170;28;4184;-85
2022/12/09 02:43:10;;;;;;;;;;;;;;;5.30;75.89;99577.72;5050732;28;3654;-85
2022/12/09 02:45:37;;;;;;;;;;;;;;;5.30;75.15;99578.53;5055653;28;3425;-86
2022/12/09 02:48:03;;;;;;;;;;;;;;;5.53;74.64;99579.88;5050536;28;4363;-85
2022/12/09 02:50:29;;;;;;;;;;;;;;;5.33;75.13;99574.63;5080535;28;4256;-84
2022/12/09 02:52:56;;;;;;;;;;;;;;;5.33;75.05;99588.78;5068865;28;4178;-85
2022/12/09 02:55:22;;;;;;;;;;;;;;;4.80;74.95;99490.16;5065738;28;4279;-85
2022/12/09 02:57:48;;;;;;;;;;;;;;;5.42;74.67;99586.72;5049984;28;4077;-84
2022/12/09 03:00:15;;;;;;;;;;;;;;;5.38;74.96;99582.81;5051487;28;4350;-85
2022/12/09 03:02:42;;;;;;;;;;;;;;;5.39;74.73;99587.94;5046735;28;4366;-85
2022/12/09 03:05:09;;;;;;;;;;;;;;;5.35;74.99;99593.91;5066904;28;4261;-85
2022/12/09 03:07:35;;;;;;;;;;;;;;;5.40;75.07;99586.91;5064462;28;3984;-85
2022/12/09 03:10:02;;;;;;;;;;;;;;;5.50;74.44;99591.84;5050978;28;3473;-86
2022/12/09 03:12:28;;;;;;;;;;;;;;;5.40;75.02;99599.44;5052489;28;4086;-84
2022/12/09 03:14:55;;;;;;;;;;;;;;;5.42;74.90;99605.41;5048377;28;4207;-84
2022/12/09 03:17:21;;;;;;;;;;;;;;;5.33;75.23;99602.16;5050834;28;4274;-84
2022/12/09 03:19:47;;;;;;;;;;;;;;;5.40;74.89;99600.25;5066890;28;4369;-83
2022/12/09 03:22:14;;;;;;;;;;;;;;;5.33;75.25;99602.16;5051590;28;4215;-85
2022/12/09 03:24:40;;;;;;;;;;;;;;;5.32;75.38;99610.34;5044897;28;4354;-85
2022/12/09 03:27:07;;;;;;;;;;;;;;;5.44;75.05;99614.00;5063931;28;4270;-86
2022/12/09 03:29:33;;;;;;;;;;;;;;;5.42;74.62;99610.75;5054982;28;4252;-84
2022/12/09 03:31:59;;;;;;;;;;;;;;;5.37;75.15;99610.56;5053189;28;3348;-84
2022/12/09 03:34:26;;;;;;;;;;;;;;;5.29;75.05;99611.56;5055001;28;4239;-85
2022/12/09 03:36:52;;;;;;;;;;;;;;;5.39;74.72;99613.84;5053128;28;4155;-85
2022/12/09 03:39:18;;;;;;;;;;;;;;;5.40;74.83;99618.97;5050209;28;4311;-85
2022/12/09 03:41:45;;;;;;;;;;;;;;;5.40;75.23;99613.63;5072806;28;3232;-85
2022/12/09 03:44:11;;;;;;;;;;;;;;;5.38;75.05;99618.38;5050332;28;4357;-85
2022/12/09 03:46:38;;;;;;;;;;;;;;;5.23;75.49;99626.59;5072342;28;3448;-86
2022/12/09 03:49:04;;;;;;;;;;;;;;;5.32;75.28;99624.50;5070495;28;3955;-85
2022/12/09 03:51:30;;;;;;;;;;;;;;;5.30;75.55;99623.09;5060683;28;4221;-85
2022/12/09 03:53:57;;;;;;;;;;;;;;;5.50;75.07;99631.91;5068214;28;4360;-84
2022/12/09 03:56:23;;;;;;;;;;;;;;;5.29;75.15;99626.78;5051228;28;3594;-85
2022/12/09 03:58:50;;;;;;;;;;;;;;;5.40;74.98;99626.16;5083400;28;4248;-85
2022/12/09 04:01:16;;;;;;;;;;;;;;;5.33;74.92;99633.38;5060176;28;4385;-85
2022/12/09 04:03:42;;;;;;;;;;;;;;;5.18;75.58;99631.75;5054349;28;4295;-84
2022/12/09 04:06:09;;;;;;;;;;;;;;;5.15;75.76;99637.50;5061622;28;4185;-84
2022/12/09 04:08:35;;;;;;;;;;;;;;;5.16;75.63;99632.97;5035901;28;4047;-85
2022/12/09 04:11:01;;;;;;;;;;;;;;;5.18;75.90;99628.25;5048386;28;4369;-86
2022/12/09 04:13:47;;;;;;;;;;;;;;;5.16;76.10;99631.13;5049496;28;4148;-84
2022/12/09 04:16:34;;;;;;;;;;;;;;;5.19;75.53;99635.22;5056546;28;3343;-85
2022/12/09 04:19:20;;;;;;;;;;;;;;;5.14;75.82;99635.00;5051991;28;3538;-85
2022/12/09 04:22:02;;;;;;;;;;;;;;;5.09;75.99;99632.13;5050509;28;4153;-85
2022/12/09 04:24:28;;;;;;;;;;;;;;;5.14;75.96;99638.50;5050187;28;4329;-84
2022/12/09 04:26:55;;;;;;;;;;;;;;;5.22;75.79;99643.63;5069773;28;3686;-85
2022/12/09 04:29:21;;;;;;;;;;;;;;;5.12;75.96;99642.44;5066547;28;4290;-86
2022/12/09 04:31:47;;;;;;;;;;;;;;;5.15;75.67;99642.84;5050967;28;4309;-85
2022/12/09 04:34:14;;;;;;;;;;;;;;;5.14;75.97;99643.03;5033098;28;4281;-83
2022/12/09 04:36:40;;;;;;;;;;;;;;;5.21;76.19;99651.88;5027939;28;4134;-84
2022/12/09 04:39:07;;;;;;;;;;;;;;;5.18;75.83;99646.94;5034485;28;4442;-83
2022/12/09 04:41:33;;;;;;;;;;;;;;;5.16;75.59;99646.31;5034432;28;3784;-85
2022/12/09 04:43:59;;;;;;;;;;;;;;;5.14;75.79;99654.50;5054724;28;4314;-86
2022/12/09 04:46:25;;;;;;;;;;;;;;;5.24;75.36;99665.63;5042013;28;3527;-84
2022/12/09 04:48:52;;;;;;;;;;;;;;;5.12;75.77;99672.59;5032843;28;4231;-84
2022/12/09 04:51:18;;;;;;;;;;;;;;;5.30;75.25;99679.19;5048460;28;4254;-85
2022/12/09 04:53:45;;;;;;;;;;;;;;;5.17;75.61;99678.13;5049057;28;4224;-85
2022/12/09 04:56:11;;;;;;;;;;;;;;;5.16;75.87;99681.84;5048115;28;4410;-85
2022/12/09 04:58:38;;;;;;;;;;;;;;;5.19;75.80;99681.41;5049505;28;4160;-85
2022/12/09 05:01:04;;;;;;;;;;;;;;;5.16;75.71;99689.03;5032644;28;4298;-83
2022/12/09 05:03:30;;;;;;;;;;;;;;;5.25;75.61;99687.78;5031450;28;3308;-84
2022/12/09 05:05:57;;;;;;;;;;;;;;;5.20;75.86;99685.72;5064210;28;4453;-85
2022/12/09 05:08:23;;;;;;;;;;;;;;;5.19;76.43;99684.09;5046929;28;4195;-85
2022/12/09 05:10:50;;;;;;;;;;;;;;;5.18;76.14;99695.00;5054173;28;4318;-85
2022/12/09 05:13:16;;;;;;;;;;;;;;;5.17;75.72;99693.34;5064433;28;4347;-84
2022/12/09 05:15:43;;;;;;;;;;;;;;;5.21;75.66;99689.25;5049749;28;4313;-85
2022/12/09 05:18:09;;;;;;;;;;;;;;;5.23;75.25;99695.16;5064476;28;3980;-85
2022/12/09 05:20:35;;;;;;;;;;;;;;;5.41;74.96;99700.75;5052159;28;4303;-85
2022/12/09 05:23:02;;;;;;;;;;;;;;;5.33;75.17;99697.44;5077250;28;4171;-85
2022/12/09 05:25:28;;;;;;;;;;;;;;;5.27;75.67;99698.28;5053764;28;4406;-85
2022/12/09 05:27:54;;;;;;;;;;;;;;;5.23;75.49;99698.69;5078500;28;4121;-85
2022/12/09 05:30:21;;;;;;;;;;;;;;;5.21;75.71;99700.75;5072247;28;4323;-84
2022/12/09 05:32:47;;;;;;;;;;;;;;;5.26;75.87;99707.28;5090978;28;4379;-85
2022/12/09 05:35:13;;;;;;;;;;;;;;;5.19;75.80;99702.78;5072859;28;4237;-85
2022/12/09 05:37:40;;;;;;;;;;;;;;;5.25;75.42;99701.13;5049291;28;4280;-85
2022/12/09 05:40:06;;;;;;;;;;;;;;;5.30;75.37;99706.69;5073845;28;3595;-85
2022/12/09 05:42:33;;;;;;;;;;;;;;;5.21;75.72;99707.94;5067548;28;4161;-86
2022/12/09 05:44:59;;;;;;;;;;;;;;;5.29;75.26;99713.03;5070558;28;4189;-85
2022/12/09 05:47:26;;;;;;;;;;;;;;;5.37;75.21;99714.69;5067318;28;4333;-84
2022/12/09 05:49:52;;;;;;;;;;;;;;;5.28;75.47;99722.09;5059631;28;4286;-84
2022/12/09 05:52:18;;;;;;;;;;;;;;;5.15;75.65;99722.09;5057485;28;4438;-85
2022/12/09 05:54:45;;;;;;;;;;;;;;;5.29;75.26;99721.06;5091414;28;4265;-85
2022/12/09 05:57:11;;;;;;;;;;;;;;;5.34;75.37;99715.91;5070248;28;4147;-85
2022/12/09 05:59:37;;;;;;;;;;;;;;;5.17;75.75;99728.84;5082448;28;3912;-84
2022/12/09 06:02:04;;;;;;;;;;;;;;;5.29;75.19;99736.25;5084775;28;3893;-85
2022/12/09 06:04:30;;;;;;;;;;;;;;;5.29;75.13;99734.41;5068675;28;3807;-83
2022/12/09 06:06:57;;;;;;;;;;;;;;;5.25;75.59;99733.19;5054239;28;4331;-85
2022/12/09 06:09:23;;;;;;;;;;;;;;;5.18;75.75;99740.38;5057689;28;4381;-85
2022/12/09 06:11:50;;;;;;;;;;;;;;;5.20;75.43;99735.63;5053294;28;4379;-85
2022/12/09 06:14:18;;;;;;;;;;;;;;;5.20;75.68;99735.63;5059438;28;4322;-85
2022/12/09 06:16:45;;;;;;;;;;;;;;;5.26;75.42;99742.81;5051649;28;4341;-85
2022/12/09 06:19:12;;;;;;;;;;;;;;;5.30;75.42;99746.75;5040249;28;4422;-85
2022/12/09 06:21:38;;;;;;;;;;;;;;;5.49;74.59;99750.44;5068544;28;4192;-85
2022/12/09 06:24:05;;;;;;;;;;;;;;;5.37;75.76;99750.22;5053249;28;3954;-84
2022/12/09 06:26:31;;;;;;;;;;;;;;;5.38;74.39;99751.88;5068042;28;4111;-85
2022/12/09 06:28:58;;;;;;;;;;;;;;;5.19;75.39;99760.69;5053274;28;3566;-85
2022/12/09 06:31:25;;;;;;;;;;;;;;;5.16;76.02;99748.56;5051292;28;4189;-85
2022/12/09 06:33:52;;;;;;;;;;;;;;;5.12;76.42;99759.88;5038688;28;4294;-85
2022/12/09 06:36:18;;;;;;;;;;;;;;;5.11;76.03;99758.22;5052984;28;4271;-85
2022/12/09 06:38:44;;;;;;;;;;;;;;;5.16;75.78;99755.75;5042532;28;4422;-84
2022/12/09 06:41:11;;;;;;;;;;;;;;;5.17;75.65;99755.53;5040196;28;3994;-85
2022/12/09 06:43:37;;;;;;;;;;;;;;;5.21;75.53;99764.00;5051813;28;4276;-85
2022/12/09 06:46:04;;;;;;;;;;;;;;;5.20;75.69;99765.81;5032672;28;4274;-85
2022/12/09 06:48:30;;;;;;;;;;;;;;;5.17;75.52;99765.41;5055276;28;4232;-84
2022/12/09 06:50:57;;;;;;;;;;;;;;;5.29;75.63;99768.28;5071746;28;4345;-84
2022/12/09 06:53:23;;;;;;;;;;;;;;;5.17;75.90;99770.75;5067976;28;4462;-85
2022/12/09 06:55:49;;;;;;;;;;;;;;;5.30;74.99;99773.44;5074693;28;4154;-84
2022/12/09 06:58:16;;;;;;;;;;;;;;;5.23;75.38;99778.78;5074477;28;4311;-84
2022/12/09 07:00:42;;;;;;;;;;;;;;;5.14;75.83;99788.00;5071780;28;3432;-85
2022/12/09 07:03:08;;;;;;;;;;;;;;;5.19;75.98;99793.53;5068665;28;3544;-85
2022/12/09 07:05:35;;;;;;;;;;;;;;;5.18;75.70;99793.75;5054481;28;3549;-85
2022/12/09 07:08:01;;;;;;;;;;;;;;;5.32;74.96;99798.06;5065125;28;4082;-85
2022/12/09 07:10:27;;;;;;;;;;;;;;;5.18;75.68;99807.13;5069438;28;3452;-85
2022/12/09 07:12:54;;;;;;;;;;;;;;;5.11;76.03;99807.06;5053840;28;3960;-85
2022/12/09 07:15:20;;;;;;;;;;;;;;;5.08;76.07;99806.66;5047160;28;3576;-84
2022/12/09 07:17:46;;;;;;;;;;;;;;;5.11;75.99;99814.28;5050471;28;4435;-83
2022/12/09 07:20:13;;;;;;;;;;;;;;;5.12;75.77;99822.09;5049469;28;4280;-84
2022/12/09 07:22:39;;;;;;;;;;;;;;;5.21;75.36;99822.72;5055437;28;3659;-83
2022/12/09 07:25:05;;;;;;;;;;;;;;;5.20;75.83;99826.41;5069800;28;4379;-85
2022/12/09 07:27:32;;;;;;;;;;;;;;;5.10;76.08;99831.31;5049036;28;4267;-84
2022/12/09 07:29:58;;;;;;;;;;;;;;;5.07;76.05;99837.06;5050629;28;3368;-84
2022/12/09 07:32:25;;;;;;;;;;;;;;;5.15;75.85;99831.53;5055113;28;4410;-85
2022/12/09 07:34:51;;;;;;;;;;;;;;;5.16;76.12;99835.84;5069581;28;4254;-84
2022/12/09 07:37:17;;;;;;;;;;;;;;;5.19;75.63;99840.78;5050570;28;3434;-84
2022/12/09 07:39:44;;;;;;;;;;;;;;;5.22;75.46;99833.19;5047357;28;4371;-84
2022/12/09 07:42:10;;;;;;;;;;;;;;;5.16;76.17;99834.00;5049296;28;4011;-84
2022/12/09 07:44:36;;;;;;;;;;;;;;;5.09;76.02;99830.50;5048022;28;4089;-84
2022/12/09 07:47:03;;;;;;;;;;;;;;;5.21;75.38;99834.22;5069407;28;4218;-84
2022/12/09 07:49:29;;;;;;;;;;;;;;;5.24;75.29;99849.03;5058782;28;4244;-85
2022/12/09 07:51:55;;;;;;;;;;;;;;;5.30;75.09;99842.06;5059059;28;4243;-85
2022/12/09 07:54:22;;;;;;;;;;;;;;;5.22;75.53;99848.38;5055415;28;4358;-84
2022/12/09 07:56:48;;;;;;;;;;;;;;;5.21;75.78;99858.25;5076087;28;4503;-85
2022/12/09 07:59:14;;;;;;;;;;;;;;;5.29;75.26;99864.41;5052278;28;4176;-83
2022/12/09 08:01:41;;;;;;;;;;;;;;;5.27;75.43;99866.50;5053384;28;4164;-83
2022/12/09 08:04:07;;;;;;;;;;;;;;;5.32;75.18;99864.00;5073901;28;4243;-85
2022/12/09 08:06:33;;;;;;;;;;;;;;;5.17;75.28;99857.00;5054865;28;4104;-84
2022/12/09 08:08:59;;;;;;;;;;;;;;;5.20;75.56;99869.13;5071790;28;4288;-83
2022/12/09 08:11:26;;;;;;;;;;;;;;;5.31;75.05;99860.53;5070210;28;4081;-84
2022/12/09 08:13:52;;;;;;;;;;;;;;;5.39;74.73;99868.34;5055917;28;4374;-84
2022/12/09 08:16:19;;;;;;;;;;;;;;;5.31;75.48;99870.38;5070786;28;3832;-85
2022/12/09 08:18:45;;;;;;;;;;;;;;;5.16;75.64;99882.06;5047868;28;4405;-84
2022/12/09 08:21:11;;;;;;;;;;;;;;;5.10;75.99;99885.53;5068137;28;4660;-84
2022/12/09 08:23:38;;;;;;;;;;;;;;;5.11;76.14;99881.81;5078469;28;4417;-84
2022/12/09 08:26:04;;;;;;;;;;;;;;;5.24;75.50;99883.72;5059122;28;4319;-85
2022/12/09 08:28:30;;;;;;;;;;;;;;;5.32;75.10;99885.38;5056250;28;4202;-86
2022/12/09 08:30:57;;;;;;;;;;;;;;;5.17;75.52;99885.53;5089298;28;4377;-85
2022/12/09 08:33:23;;;;;;;;;;;;;;;5.12;75.77;99880.81;5060909;28;4445;-85
2022/12/09 08:35:50;;;;;;;;;;;;;;;5.09;76.04;99889.22;5072179;28;4226;-86
2022/12/09 08:38:18;;;;;;;;;;;;;;;5.10;76.60;99895.38;5056093;28;4560;-85
2022/12/09 08:40:45;;;;;;;;;;;;;;;5.14;76.01;99901.97;5050687;28;3975;-85
2022/12/09 08:43:11;;;;;;;;;;;;;;;5.10;76.04;99895.38;5054737;28;4335;-86
2022/12/09 08:45:37;;;;;;;;;;;;;;;5.13;75.83;99893.13;5071082;28;3470;-86
2022/12/09 08:48:03;;;;;;;;;;;;;;;5.05;76.42;99898.63;5074066;28;4383;-86
2022/12/09 08:50:30;;;;;;;;;;;;;;;5.14;75.67;99907.28;5054322;28;4234;-85
2022/12/09 08:52:56;;;;;;;;;;;;;;;5.14;76.27;99912.63;5087027;28;3219;-86
2022/12/09 08:55:23;;;;;;;;;;;;;;;5.09;76.64;99910.59;5057028;28;3696;-86
2022/12/09 08:57:49;;;;;;;;;;;;;;;5.09;76.01;99917.75;5071922;28;4407;-87
2022/12/09 09:00:15;;;;;;;;;;;;;;;5.08;75.75;99914.25;5075147;28;4234;-84
2022/12/09 09:02:42;;;;;;;;;;;;;;;5.00;76.12;99915.28;5069974;28;4308;-86
2022/12/09 09:05:09;;;;;;;;;;;;;;;4.99;76.21;99916.28;5077371;28;3745;-85
2022/12/09 09:07:35;;;;;;;;;;;;;;;4.96;76.44;99922.00;5073518;28;4510;-86
2022/12/09 09:10:01;;;;;;;;;;;;;;;5.01;76.09;99924.91;5092575;28;4413;-85
2022/12/09 09:12:28;;;;;;;;;;;;;;;5.00;76.10;99917.94;5058123;28;4229;-86
2022/12/09 09:14:54;;;;;;;;;;;;;;;5.06;76.28;99924.31;5064046;28;4162;-85
2022/12/09 09:17:21;;;;;;;;;;;;;;;5.08;76.38;99927.59;5061782;28;4186;-85
2022/12/09 09:19:47;;;;;;;;;;;;;;;5.03;76.52;99940.75;5068067;28;4221;-86
2022/12/09 09:22:13;;;;;;;;;;;;;;;4.97;76.21;99934.34;5062864;28;4103;-85
2022/12/09 09:24:40;;;;;;;;;;;;;;;4.98;76.46;99935.16;5072833;28;4141;-86
2022/12/09 09:27:06;;;;;;;;;;;;;;;5.00;76.11;99936.63;5056620;28;4264;-85
2022/12/09 09:29:32;;;;;;;;;;;;;;;5.01;76.45;99940.09;5062047;28;3476;-86
2022/12/09 09:31:59;;;;;;;;;;;;;;;4.94;76.43;99942.75;5075557;28;3170;-86
2022/12/09 09:34:25;;;;;;;;;;;;;;;4.98;76.19;99944.00;5064535;28;3292;-86
2022/12/09 09:36:51;;;;;;;;;;;;;;;4.98;76.05;99953.84;5075288;28;3249;-86
2022/12/09 09:39:18;;;;;;;;;;;;;;;5.00;76.07;99944.63;5073822;28;4037;-86
2022/12/09 09:41:44;;;;;;;;;;;;;;;4.98;76.23;99940.50;5054603;28;3986;-86
2022/12/09 09:44:10;;;;;;;;;;;;;;;4.98;76.19;99943.16;5055552;28;4232;-86
2022/12/09 09:46:37;;;;;;;;;;;;;;;5.03;76.42;99947.91;5059163;28;3300;-85
2022/12/09 09:49:03;;;;;;;;;;;;;;;5.00;76.07;99947.28;5076385;28;4126;-85
2022/12/09 09:51:29;;;;;;;;;;;;;;;4.96;76.24;99945.22;5057369;28;4218;-85
2022/12/09 09:53:56;;;;;;;;;;;;;;;5.01;76.34;99950.78;5053491;28;4118;-85
2022/12/09 09:56:32;;;;;;;;;;;;;;;;;;;;;
2022/12/09 09:58:59;;;;;;;;;;;;;;;4.98;76.13;99954.66;5057643;28;4391;-85
2022/12/09 10:01:25;;;;;;;;;;;;;;;5.04;76.11;99952.22;5070602;28;4209;-85
2022/12/09 10:03:51;;;;;;;;;;;;;;;5.03;76.32;99961.25;5053302;28;4420;-85
2022/12/09 10:06:18;;;;;;;;;;;;;;;5.01;76.40;99959.59;5067169;28;3950;-86
2022/12/09 10:08:44;;;;;;;;;;;;;;;5.02;75.92;99963.09;5072443;28;4401;-85
2022/12/09 10:11:10;;;;;;;;;;;;;;;5.17;75.76;99961.09;5075364;28;4028;-85
2022/12/09 10:13:37;;;;;;;;;;;;;;;5.13;76.07;99962.53;5060215;28;4827;-85
2022/12/09 10:16:04;;;;;;;;;;;;;;;5.14;76.05;99974.03;5052973;28;4263;-86
2022/12/09 10:18:30;;;;;;;;;;;;;;;5.14;75.55;99974.03;5055256;28;4584;-85
2022/12/09 10:20:56;;;;;;;;;;;;;;;5.14;75.34;99979.38;5061471;28;4176;-83
2022/12/09 10:23:23;;;;;;;;;;;;;;;5.09;75.88;99979.97;5058522;28;3788;-83
2022/12/09 10:25:49;;;;;;;;;;;;;;;5.01;76.00;99980.13;5060261;28;4279;-83
2022/12/09 10:28:15;;;;;;;;;;;;;;;5.13;75.63;99980.41;5074864;28;4055;-82
2022/12/09 10:30:42;;;;;;;;;;;;;;;5.23;75.48;99992.38;5057562;28;4433;-84
2022/12/09 10:33:08;;;;;;;;;;;;;;;5.09;75.94;99996.00;5077042;28;3793;-84
2022/12/09 10:35:34;;;;;;;;;;;;;;;5.15;75.56;99991.72;5064759;28;4224;-84
2022/12/09 10:38:00;;;;;;;;;;;;;;;5.08;76.53;99988.19;5073369;28;4150;-83
2022/12/09 10:40:27;;;;;;;;;;;;;;;5.05;76.01;99989.38;5074999;28;4205;-83
2022/12/09 10:45:37;;;;;;;;;;;;;;;5.15;75.57;100000.53;5059563;28;4232;-83
2022/12/09 10:48:04;;;;;;;;;;;;;;;5.18;76.20;100002.00;5079701;28;4526;-82
2022/12/09 10:50:31;;;;;;;;;;;;;;;5.13;76.21;99996.41;5058650;28;3803;-83
2022/12/09 10:52:57;;;;;;;;;;;;;;;5.16;75.80;99996.84;5077227;28;4350;-82
2022/12/09 10:55:23;;;;;;;;;;;;;;;5.19;75.73;100000.97;5064251;28;4130;-83
2022/12/09 10:57:50;;;;;;;;;;;;;;;5.27;75.26;99992.81;5067382;28;4286;-84
2022/12/09 11:00:17;;;;;;;;;;;;;;;5.15;75.37;99989.88;5060211;28;4389;-83
2022/12/09 11:02:43;;;;;;;;;;;;;;;5.17;75.88;99993.13;5057536;28;4166;-82
2022/12/09 11:05:09;;;;;;;;;;;;;;;5.09;76.17;99996.00;5057060;28;4306;-82
2022/12/09 11:07:36;;;;;;;;;;;;;;;5.00;76.96;99989.19;5058732;28;4369;-83
2022/12/09 11:10:04;;;;;;;;;;;;;;;5.01;76.34;99999.63;5062718;28;4272;-83
2022/12/09 11:12:30;;;;;;;;;;;;;;;5.01;76.24;100004.97;5066240;28;4360;-86
2022/12/09 11:14:57;;;;;;;;;;;;;;;5.11;75.89;100003.78;5072359;28;4212;-89
2022/12/09 11:17:24;;;;;;;;;;;;;;;5.04;76.35;100009.09;5075250;28;4049;-88
2022/12/09 11:19:50;;;;;;;;;;;;;;;5.04;76.23;100005.63;5060927;28;3859;-88
2022/12/09 11:22:17;;;;;;;;;;;;;;;5.03;76.31;100002.13;5082275;28;4233;-87
2022/12/09 11:24:43;;;;;;;;;;;;;;;4.99;76.25;100004.34;5066266;28;4247;-87
2022/12/09 11:27:09;;;;;;;;;;;;;;;4.99;76.63;100004.34;5062181;28;4177;-86
2022/12/09 11:29:36;;;;;;;;;;;;;;;5.00;76.56;99999.84;5069664;28;4253;-88
2022/12/09 11:32:02;;;;;;;;;;;;;;;4.99;76.45;100000.84;5074443;28;4182;-88
2022/12/09 11:34:29;;;;;;;;;;;;;;;4.99;76.26;100004.34;5065527;28;3838;-88
2022/12/09 11:36:55;;;;;;;;;;;;;;;5.09;76.11;99997.81;5075783;28;3886;-87
2022/12/09 11:39:21;;;;;;;;;;;;;;;5.01;76.29;100006.84;5066431;28;3999;-86
2022/12/09 11:44:32;;;;;;;;;;;;;;;4.99;76.96;100001.69;5075084;28;4276;-86
2022/12/09 11:46:58;;;;;;;;;;;;;;;4.96;76.61;100001.25;5064694;28;4157;-86
2022/12/09 11:49:25;;;;;;;;;;;;;;;4.97;76.69;100000.22;5058728;28;3963;-87
2022/12/09 11:51:51;;;;;;;;;;;;;;;4.96;76.34;99995.91;5064337;28;4045;-85
2022/12/09 11:54:18;;;;;;;;;;;;;;;4.96;76.35;99999.41;5064043;28;4005;-84
2022/12/09 11:56:44;;;;;;;;;;;;;;;4.94;76.24;99997.94;5055934;28;3942;-85
2022/12/09 11:59:10;;;;;;;;;;;;;;;5.00;76.76;100008.69;5059404;28;4493;-83
2022/12/09 12:01:37;;;;;;;;;;;;;;;4.99;77.02;100006.19;5058060;28;4199;-85
2022/12/09 12:04:03;;;;;;;;;;;;;;;4.98;76.69;100004.56;5047167;28;3971;-84
2022/12/09 12:06:30;;;;;;;;;;;;;;;4.95;76.42;99995.09;5063957;28;3841;-84
2022/12/09 12:08:56;;;;;;;;;;;;;;;4.98;76.36;100012.56;5042190;28;3550;-84
2022/12/09 12:11:22;;;;;;;;;;;;;;;4.96;76.31;100014.59;5037957;28;3907;-84
2022/12/09 12:13:49;;;;;;;;;;;;;;;4.97;76.47;100011.75;5066763;28;3475;-85
2022/12/09 12:16:15;;;;;;;;;;;;;;;5.00;76.83;100015.88;5051997;28;4168;-85
2022/12/09 12:18:41;;;;;;;;;;;;;;;5.03;76.68;100017.28;5045221;28;4216;-85
2022/12/09 12:21:08;;;;;;;;;;;;;;;5.02;76.43;100019.16;5034977;28;3470;-85
2022/12/09 12:23:34;;;;;;;;;;;;;;;4.95;76.57;100016.44;5052304;28;3404;-85
2022/12/09 12:26:00;;;;;;;;;;;;;;;4.99;76.52;100012.34;5038458;28;3330;-85
2022/12/09 12:28:27;;;;;;;;;;;;;;;4.96;76.65;100015.41;5051613;28;3533;-86
2022/12/09 12:30:53;;;;;;;;;;;;;;;4.99;77.00;100020.34;5066026;28;3950;-85
2022/12/09 12:33:19;;;;;;;;;;;;;;;5.00;76.38;100026.53;5034683;28;3408;-87
2022/12/09 12:35:46;;;;;;;;;;;;;;;5.04;76.20;100025.13;5039782;28;4151;-87
2022/12/09 12:38:12;;;;;;;;;;;;;;;5.01;76.55;100020.19;5055537;28;3387;-85
2022/12/09 12:40:39;;;;;;;;;;;;;;;4.99;76.87;100020.34;5056085;28;3469;-86
2022/12/09 12:48:33;;;;;;;;;;;;;;;5.03;76.36;100028.81;5063832;28;3999;-86
2022/12/09 12:50:59;;;;;;;;;;;;;;;5.04;76.50;100032.31;5048459;28;4270;-86
2022/12/09 12:53:25;;;;;;;;;;;;;;;5.00;76.80;100034.56;5053596;28;3950;-86
2022/12/09 12:55:52;;;;;;;;;;;;;;;5.11;77.16;100033.16;5059481;28;3402;-86
2022/12/09 12:58:18;;;;;;;;;;;;;;;5.09;76.62;100037.84;5061912;28;4211;-86
2022/12/09 13:00:44;;;;;;;;;;;;;;;5.06;76.44;100044.44;5040540;28;4158;-88
2022/12/09 13:03:11;;;;;;;;;;;;;;;5.05;76.55;100042.78;5046541;28;4048;-86
2022/12/09 13:05:37;;;;;;;;;;;;;;;5.03;76.83;100049.31;5080236;28;3911;-86
2022/12/09 13:08:03;;;;;;;;;;;;;;;5.04;76.91;100040.31;5071532;28;3751;-86
2022/12/09 13:10:30;;;;;;;;;;;;;;;5.09;76.88;100037.84;5070167;28;3976;-86
2022/12/09 13:12:57;;;;;;;;;;;;;;;5.06;76.78;100038.25;5066130;28;4462;-86
2022/12/09 13:15:23;;;;;;;;;;;;;;;5.12;76.88;100042.84;5061176;28;4345;-85